Hovedside
METAR-TAF:

METAR-TAF

Lufthavner :

Ondangwa, Namibia

breddegrad: 17-52-42S, lengdegrad: 015-57-09E, høyde over havet: 1096 m

Gjeldene værobservasjon

Denne rapporten ble laget for 1 time og 0 minutter siden, klokken 13:00 UTC
Vind 1 kt fra Øst
Temperatur 31°C
Luftfuktighet 10%
Trykk 1017 hPa
Sikt 10 km eller mer
ingen skyer under 1500 m og ingen bygeskyer

METAR: FYOA 181300Z 08001KT CAVOK 31/M04 Q1017

Tid: 16:00 (14:00 UTC)

Varsel

Denne rapporten ble laget for 3 timer og 0 minutter siden, klokken 11:00 UTC
Varsel gyldig fra 18. klokken 12 UTC til 18. klokken 21 UTC
Vind 7 kt fra Nord-nordvest
Sikt 10 km eller mer
ingen skyer under 1500 m og ingen bygeskyer

TAF: FYOA 181100Z 1812/1821 33007KT CAVOK

Værobservasjoner og værvarsel for over 4000 flyplasser (METAR- og TAF-rapporter).

Tilgjengelige stasjoner er representert av de røde og gule prikkene på kartet.

Hold musepekeren over prikken for å se navnet på stasjonen.

Klikk så for å se værobservasjoner og -varsler.

For å forandre kartet kan du klikke på den grønne knappen med svart kryss for å zoome inn, på den grønne knappen med strek for å zoome ut, eller på de grønne pilene for å se tilstøtende kart.


METAR-TAF: